createdAt,value
2024-01-18T00:01:54.375Z,2.09
2024-01-18T00:04:20.991Z,2.14
2024-01-18T00:06:47.798Z,2.28
2024-01-18T00:09:14.337Z,2.35
2024-01-18T00:11:40.789Z,2.36
2024-01-18T00:14:07.250Z,2.40
2024-01-18T00:16:33.680Z,2.39
2024-01-18T00:19:01.827Z,2.36
2024-01-18T00:21:28.568Z,2.31
2024-01-18T00:23:55.115Z,2.32
2024-01-18T00:26:21.584Z,2.31
2024-01-18T00:28:48.226Z,2.13
2024-01-18T00:31:14.985Z,1.95
2024-01-18T00:33:41.489Z,1.86
2024-01-18T00:36:10.464Z,1.62
2024-01-18T00:38:36.945Z,1.48
2024-01-18T00:41:03.686Z,1.77
2024-01-18T00:43:30.111Z,1.71
2024-01-18T00:45:56.575Z,1.92
2024-01-18T00:48:23.251Z,2.09
2024-01-18T00:50:49.796Z,2.12
2024-01-18T00:53:17.525Z,2.23
2024-01-18T00:55:43.923Z,2.07
2024-01-18T00:58:10.379Z,2.18
2024-01-18T01:00:37.008Z,2.12
2024-01-18T01:03:03.677Z,2.01
2024-01-18T01:05:30.093Z,1.48
2024-01-18T01:07:56.553Z,1.63
2024-01-18T01:10:24.615Z,1.78
2024-01-18T01:12:51.037Z,1.49
2024-01-18T01:15:17.852Z,1.43
2024-01-18T01:17:44.446Z,1.57
2024-01-18T01:20:11.593Z,1.51
2024-01-18T01:22:38.077Z,1.67
2024-01-18T01:25:05.324Z,1.51
2024-01-18T01:27:33.171Z,1.40
2024-01-18T01:29:59.810Z,1.25
2024-01-18T01:32:26.251Z,1.19
2024-01-18T01:34:52.733Z,1.24
2024-01-18T01:37:19.538Z,1.02
2024-01-18T01:39:45.938Z,1.08
2024-01-18T01:42:12.445Z,1.10
2024-01-18T01:44:40.194Z,1.24
2024-01-18T01:47:06.639Z,1.17
2024-01-18T01:49:33.244Z,1.16
2024-01-18T01:51:59.743Z,1.19
2024-01-18T01:54:27.307Z,1.11
2024-01-18T01:56:55.306Z,1.19
2024-01-18T01:59:26.273Z,1.26
2024-01-18T02:01:54.177Z,1.05
2024-01-18T02:04:21.817Z,1.15
2024-01-18T02:06:52.067Z,1.31
2024-01-18T02:09:19.417Z,1.31
2024-01-18T02:11:46.018Z,1.29
2024-01-18T02:14:13.180Z,1.28
2024-01-18T02:16:39.865Z,1.53
2024-01-18T02:19:07.751Z,1.62
2024-01-18T02:21:34.422Z,1.71
2024-01-18T02:24:11.798Z,1.33
2024-01-18T02:26:39.558Z,1.41
2024-01-18T02:29:06.049Z,1.59
2024-01-18T02:31:32.456Z,1.65
2024-01-18T02:33:59.305Z,1.62
2024-01-18T02:36:26.387Z,1.66
2024-01-18T02:38:53.055Z,1.46
2024-01-18T02:41:20.073Z,1.48
2024-01-18T02:43:48.113Z,1.67
2024-01-18T02:46:16.744Z,1.52
2024-01-18T02:48:44.151Z,1.76
2024-01-18T02:51:10.623Z,1.82
2024-01-18T02:53:37.070Z,1.64
2024-01-18T02:56:03.997Z,1.62
2024-01-18T02:58:30.394Z,1.82
2024-01-18T03:00:58.178Z,1.79
2024-01-18T03:03:24.727Z,1.64
2024-01-18T03:05:51.166Z,1.86
2024-01-18T03:08:17.954Z,1.93
2024-01-18T03:10:44.391Z,1.83
2024-01-18T03:13:10.819Z,1.78
2024-01-18T03:15:37.274Z,1.81
2024-01-18T03:18:05.610Z,1.80
2024-01-18T03:20:32.533Z,1.73
2024-01-18T03:22:58.961Z,1.71
2024-01-18T03:25:25.394Z,1.76
2024-01-18T03:27:51.821Z,1.76
2024-01-18T03:30:18.289Z,1.66
2024-01-18T03:32:44.827Z,1.72
2024-01-18T03:35:12.636Z,1.74
2024-01-18T03:37:39.042Z,1.86
2024-01-18T03:40:06.787Z,1.85
2024-01-18T03:42:33.469Z,1.74
2024-01-18T03:44:59.986Z,1.91
2024-01-18T03:47:26.493Z,1.90
2024-01-18T03:49:53.063Z,1.81
2024-01-18T03:52:21.021Z,1.83
2024-01-18T03:54:47.642Z,1.65
2024-01-18T03:57:14.279Z,1.68
2024-01-18T03:59:40.768Z,1.70
2024-01-18T04:02:07.316Z,1.74
2024-01-18T04:04:33.852Z,1.62
2024-01-18T04:07:00.465Z,1.81
2024-01-18T04:09:28.297Z,1.83
2024-01-18T04:11:54.856Z,1.81
2024-01-18T04:14:21.421Z,1.90
2024-01-18T04:16:47.830Z,1.80
2024-01-18T04:19:14.389Z,1.58
2024-01-18T04:21:40.975Z,1.76
2024-01-18T04:24:07.638Z,1.64
2024-01-18T04:26:35.489Z,1.90
2024-01-18T04:29:02.062Z,1.97
2024-01-18T04:31:28.496Z,2.07
2024-01-18T04:33:55.916Z,1.95
2024-01-18T04:36:22.415Z,1.89
2024-01-18T04:38:49.172Z,1.89
2024-01-18T04:41:15.566Z,1.86
2024-01-18T04:43:43.332Z,1.94
2024-01-18T04:46:10.176Z,1.84
2024-01-18T04:48:37.269Z,1.99
2024-01-18T04:51:04.247Z,2.10
2024-01-18T04:53:30.849Z,2.21
2024-01-18T04:55:57.484Z,2.21
2024-01-18T04:58:23.954Z,2.25
2024-01-18T05:00:51.848Z,1.96
2024-01-18T05:03:18.521Z,2.02
2024-01-18T05:05:45.210Z,2.10
2024-01-18T05:08:11.883Z,2.06
2024-01-18T05:10:38.354Z,2.00
2024-01-18T05:13:05.058Z,1.94
2024-01-18T05:15:31.735Z,1.95
2024-01-18T05:18:01.705Z,1.96
2024-01-18T05:20:28.524Z,2.10
2024-01-18T05:22:55.082Z,2.07
2024-01-18T05:25:21.611Z,2.20
2024-01-18T05:27:48.030Z,2.23
2024-01-18T05:30:14.746Z,1.95
2024-01-18T05:32:41.245Z,1.84
2024-01-18T05:35:09.328Z,1.82
2024-01-18T05:37:35.904Z,1.87
2024-01-18T05:40:02.348Z,1.89
2024-01-18T05:42:28.948Z,2.09
2024-01-18T05:44:55.461Z,2.08
2024-01-18T05:47:21.943Z,2.09
2024-01-18T05:49:48.402Z,2.02
2024-01-18T05:52:16.326Z,2.01
2024-01-18T05:54:42.882Z,1.94
2024-01-18T05:57:09.371Z,1.94
2024-01-18T05:59:35.800Z,1.92
2024-01-18T06:02:02.309Z,1.86
2024-01-18T06:04:28.879Z,1.88
2024-01-18T06:06:55.488Z,1.91
2024-01-18T06:09:23.435Z,1.95
2024-01-18T06:11:50.526Z,1.90
2024-01-18T06:14:16.940Z,1.96
2024-01-18T06:16:43.403Z,1.91
2024-01-18T06:19:11.233Z,1.90
2024-01-18T06:21:38.910Z,1.94
2024-01-18T06:24:06.221Z,1.89
2024-01-18T06:26:34.062Z,1.90
2024-01-18T06:29:00.575Z,1.78
2024-01-18T06:31:27.337Z,1.81
2024-01-18T06:33:54.171Z,1.81
2024-01-18T06:36:20.633Z,1.81
2024-01-18T06:38:47.116Z,2.11
2024-01-18T06:41:13.553Z,2.14
2024-01-18T06:43:41.303Z,2.06
2024-01-18T06:46:14.557Z,1.98
2024-01-18T06:48:41.071Z,1.94
2024-01-18T06:51:07.499Z,1.89
2024-01-18T06:53:34.116Z,1.83
2024-01-18T06:56:00.605Z,1.72
2024-01-18T06:58:27.194Z,1.59
2024-01-18T07:00:55.065Z,1.49
2024-01-18T07:03:21.600Z,1.46
2024-01-18T07:05:48.044Z,1.40
2024-01-18T07:08:14.542Z,1.27
2024-01-18T07:10:40.994Z,1.21
2024-01-18T07:13:07.408Z,1.10
2024-01-18T07:15:34.011Z,1.03
2024-01-18T07:18:01.907Z,0.97
2024-01-18T07:20:29.819Z,1.02
2024-01-18T07:22:56.297Z,1.01
2024-01-18T07:25:22.733Z,0.85
2024-01-18T07:27:49.275Z,0.78
2024-01-18T07:30:15.990Z,0.66
2024-01-18T07:32:42.499Z,0.59
2024-01-18T07:35:10.300Z,0.59
2024-01-18T07:37:37.436Z,0.58
2024-01-18T07:40:04.652Z,0.56
2024-01-18T07:42:31.143Z,0.44
2024-01-18T07:44:57.720Z,0.44
2024-01-18T07:47:24.183Z,0.44
2024-01-18T07:49:50.961Z,0.36
2024-01-18T07:52:19.307Z,0.31
2024-01-18T07:54:45.827Z,0.27
2024-01-18T07:57:12.540Z,0.20
2024-01-18T07:59:38.960Z,0.16
2024-01-18T08:02:05.450Z,0.13
2024-01-18T08:04:31.879Z,0.07
2024-01-18T08:07:00.667Z,0.05
2024-01-18T08:09:28.972Z,0.06
2024-01-18T08:11:55.393Z,0.00
2024-01-18T08:14:21.871Z,-0.04
2024-01-18T08:16:48.314Z,0.05
2024-01-18T08:19:14.900Z,0.06
2024-01-18T08:21:44.980Z,0.15
2024-01-18T08:24:12.086Z,0.12
2024-01-18T08:26:42.119Z,0.16
2024-01-18T08:29:09.084Z,0.20
2024-01-18T08:31:35.480Z,0.44
2024-01-18T08:34:02.021Z,0.77
2024-01-18T08:36:28.534Z,0.97
2024-01-18T08:38:54.975Z,1.08
2024-01-18T08:41:21.461Z,1.28
2024-01-18T08:43:49.352Z,1.36
2024-01-18T08:46:15.797Z,1.38
2024-01-18T08:48:42.636Z,1.52
2024-01-18T08:51:09.309Z,1.63
2024-01-18T08:53:36.013Z,1.73
2024-01-18T08:56:02.706Z,1.93
2024-01-18T08:58:30.555Z,1.87
2024-01-18T09:00:58.378Z,1.83
2024-01-18T09:03:24.916Z,1.77
2024-01-18T09:05:56.972Z,1.59
2024-01-18T09:08:23.605Z,1.81
2024-01-18T09:10:50.238Z,1.77
2024-01-18T09:13:19.727Z,1.63
2024-01-18T09:15:46.859Z,1.44
2024-01-18T09:18:14.766Z,1.50
2024-01-18T09:20:41.480Z,1.41
2024-01-18T09:23:13.044Z,1.69
2024-01-18T09:25:40.113Z,1.77
2024-01-18T09:28:07.089Z,1.85
2024-01-18T09:30:33.625Z,1.84
2024-01-18T09:33:00.139Z,2.00
2024-01-18T09:35:28.038Z,2.18
2024-01-18T09:37:54.508Z,2.37
2024-01-18T09:40:21.235Z,2.48
2024-01-18T09:42:48.714Z,2.51
2024-01-18T09:45:15.652Z,2.43
2024-01-18T09:47:45.538Z,2.60
2024-01-18T09:50:12.576Z,2.45
2024-01-18T09:52:40.334Z,2.36
2024-01-18T09:55:07.570Z,2.21
2024-01-18T09:57:39.546Z,2.39
2024-01-18T10:00:12.936Z,2.28
2024-01-18T10:02:39.889Z,2.24
2024-01-18T10:05:08.158Z,2.31
2024-01-18T10:07:34.774Z,2.46
2024-01-18T10:10:02.729Z,2.46
2024-01-18T10:12:31.262Z,2.81
2024-01-18T10:14:57.887Z,2.98
2024-01-18T10:17:24.744Z,2.92
2024-01-18T10:19:51.411Z,3.05
2024-01-18T10:22:21.798Z,3.18
2024-01-18T10:24:48.498Z,2.80
2024-01-18T10:27:19.139Z,3.22
2024-01-18T10:29:45.557Z,3.29
2024-01-18T10:32:12.013Z,3.12
2024-01-18T10:34:39.130Z,3.34
2024-01-18T10:37:06.507Z,3.32
2024-01-18T10:39:39.142Z,3.10
2024-01-18T10:42:07.361Z,3.42
2024-01-18T10:44:38.885Z,3.42
2024-01-18T10:47:08.919Z,3.32
2024-01-18T10:49:36.792Z,3.12
2024-01-18T10:52:03.892Z,3.25
2024-01-18T10:54:36.237Z,3.30
2024-01-18T10:57:04.712Z,3.35
2024-01-18T10:59:32.022Z,3.67
2024-01-18T11:02:01.190Z,3.63
2024-01-18T11:04:29.103Z,3.56
2024-01-18T11:06:56.710Z,3.47
2024-01-18T11:09:25.844Z,3.54
2024-01-18T11:11:53.539Z,3.87
2024-01-18T11:14:20.475Z,3.90
2024-01-18T11:16:47.140Z,4.00
2024-01-18T11:19:18.405Z,3.90
2024-01-18T11:21:44.965Z,3.99
2024-01-18T11:24:11.811Z,3.97
2024-01-18T11:26:38.378Z,3.79
2024-01-18T11:29:17.212Z,3.86
2024-01-18T11:31:47.008Z,4.13
2024-01-18T11:34:25.784Z,4.14
2024-01-18T11:36:52.284Z,4.48
2024-01-18T11:39:56.424Z,4.45
2024-01-18T11:42:24.994Z,4.37
2024-01-18T11:44:55.750Z,4.01
2024-01-18T11:47:23.143Z,4.20
2024-01-18T11:49:51.096Z,4.43
2024-01-18T11:52:17.788Z,4.66
2024-01-18T11:54:47.887Z,4.82
2024-01-18T11:57:14.485Z,4.87
2024-01-18T11:59:41.467Z,4.67
2024-01-18T12:02:08.042Z,4.97
2024-01-18T12:04:34.822Z,4.84
2024-01-18T12:07:03.439Z,4.97
2024-01-18T12:09:30.136Z,4.92
2024-01-18T12:11:57.767Z,4.85
2024-01-18T12:14:24.452Z,4.92
2024-01-18T12:16:51.013Z,5.04
2024-01-18T12:19:30.374Z,5.09
2024-01-18T12:21:57.042Z,4.93
2024-01-18T12:24:25.452Z,5.13
2024-01-18T12:26:51.969Z,5.31
2024-01-18T12:29:19.707Z,5.22
2024-01-18T12:31:46.701Z,5.18
2024-01-18T12:34:13.311Z,5.23
2024-01-18T12:36:40.276Z,5.21
2024-01-18T12:39:07.208Z,5.30
2024-01-18T12:41:34.988Z,5.42
2024-01-18T12:44:05.367Z,5.26
2024-01-18T12:46:31.910Z,5.03
2024-01-18T12:48:58.645Z,5.24
2024-01-18T12:51:25.192Z,5.19
2024-01-18T12:53:53.676Z,5.09
2024-01-18T12:56:20.565Z,5.24
2024-01-18T12:58:48.533Z,5.41
2024-01-18T13:01:36.175Z,5.41
2024-01-18T13:04:13.774Z,5.60
2024-01-18T13:06:50.611Z,5.39
2024-01-18T13:09:24.328Z,5.34
2024-01-18T13:11:51.110Z,5.14
2024-01-18T13:14:19.303Z,5.40
2024-01-18T13:16:47.348Z,5.39
2024-01-18T13:19:15.274Z,5.51
2024-01-18T13:21:42.680Z,5.36
2024-01-18T13:24:09.566Z,5.49
2024-01-18T13:26:37.194Z,5.59
2024-01-18T13:29:03.982Z,5.73
2024-01-18T13:31:31.940Z,5.84
2024-01-18T13:33:58.541Z,6.18
2024-01-18T13:36:25.520Z,6.23
2024-01-18T13:38:52.027Z,6.15
2024-01-18T13:41:19.045Z,6.43
2024-01-18T13:43:48.123Z,6.48
2024-01-18T13:46:15.177Z,7.01
2024-01-18T13:48:43.704Z,6.80
2024-01-18T13:51:10.414Z,6.91
2024-01-18T13:53:37.709Z,7.05
2024-01-18T13:56:04.612Z,7.32
2024-01-18T13:58:31.095Z,7.46
2024-01-18T14:00:57.658Z,7.81
2024-01-18T14:03:24.093Z,7.53
2024-01-18T14:05:52.209Z,7.23
2024-01-18T14:08:18.663Z,7.77
2024-01-18T14:10:45.073Z,8.07
2024-01-18T14:13:11.650Z,8.12
2024-01-18T14:15:38.091Z,7.77
2024-01-18T14:18:05.910Z,7.49
2024-01-18T14:20:32.694Z,7.04
2024-01-18T14:23:00.435Z,6.83
2024-01-18T14:25:27.182Z,6.85
2024-01-18T14:27:53.662Z,6.54
2024-01-18T14:30:20.188Z,6.45
2024-01-18T14:32:47.644Z,6.47
2024-01-18T14:35:14.176Z,6.38
2024-01-18T14:37:40.665Z,6.51
2024-01-18T14:40:10.339Z,6.55
2024-01-18T14:42:36.857Z,6.52
2024-01-18T14:45:05.876Z,6.59
2024-01-18T14:47:32.325Z,6.66
2024-01-18T14:49:58.859Z,6.77
2024-01-18T14:52:25.487Z,6.63
2024-01-18T14:54:52.904Z,6.62
2024-01-18T14:57:22.152Z,6.55
2024-01-18T14:59:48.690Z,6.65
2024-01-18T15:02:15.846Z,6.69
2024-01-18T15:04:42.456Z,6.71
2024-01-18T15:07:09.731Z,6.51
2024-01-18T15:09:36.673Z,6.26
2024-01-18T15:12:04.263Z,5.85
2024-01-18T15:14:34.564Z,5.79
2024-01-18T15:17:02.318Z,5.76
2024-01-18T15:19:28.870Z,6.02
2024-01-18T15:21:55.510Z,6.07
2024-01-18T15:24:22.052Z,5.88
2024-01-18T15:26:49.754Z,5.83
2024-01-18T15:29:16.241Z,5.49
2024-01-18T15:31:44.161Z,5.31
2024-01-18T15:34:10.915Z,5.08
2024-01-18T15:36:40.913Z,4.92
2024-01-18T15:39:07.560Z,4.67
2024-01-18T15:41:34.137Z,4.49
2024-01-18T15:44:00.577Z,4.36
2024-01-18T15:46:27.148Z,4.30
2024-01-18T15:48:55.123Z,4.15
2024-01-18T15:51:21.792Z,4.11
2024-01-18T15:53:48.218Z,4.21
2024-01-18T15:56:14.623Z,4.21
2024-01-18T15:58:41.191Z,4.23
2024-01-18T16:01:10.616Z,4.33
2024-01-18T16:03:37.245Z,4.32
2024-01-18T16:06:06.946Z,4.34
2024-01-18T16:08:33.570Z,4.36
2024-01-18T16:11:02.732Z,4.46
2024-01-18T16:13:29.538Z,4.54
2024-01-18T16:15:57.028Z,4.64
2024-01-18T16:18:23.913Z,4.62
2024-01-18T16:20:50.383Z,4.73
2024-01-18T16:23:18.434Z,4.80
2024-01-18T16:25:44.985Z,4.78
2024-01-18T16:28:11.426Z,4.73
2024-01-18T16:30:37.883Z,4.71
2024-01-18T16:33:04.484Z,4.68
2024-01-18T16:35:31.015Z,4.72
2024-01-18T16:37:57.543Z,4.56
2024-01-18T16:40:25.375Z,4.65
2024-01-18T16:42:51.834Z,4.56
2024-01-18T16:45:18.347Z,4.41
2024-01-18T16:47:44.770Z,4.28
2024-01-18T16:50:11.219Z,4.19
2024-01-18T16:52:37.628Z,4.06
2024-01-18T16:55:04.925Z,3.97
2024-01-18T16:57:33.563Z,3.91
2024-01-18T17:00:00.817Z,4.05
2024-01-18T17:02:27.468Z,4.14
2024-01-18T17:04:54.080Z,4.07
2024-01-18T17:07:20.591Z,4.03
2024-01-18T17:09:47.617Z,4.15
2024-01-18T17:12:14.473Z,4.17
2024-01-18T17:14:42.572Z,4.19
2024-01-18T17:17:09.255Z,4.19
2024-01-18T17:19:35.695Z,4.26
2024-01-18T17:22:02.140Z,4.24
2024-01-18T17:24:28.725Z,4.27
2024-01-18T17:26:55.285Z,4.31
2024-01-18T17:29:22.220Z,4.28
2024-01-18T17:31:49.972Z,4.29
2024-01-18T17:34:16.442Z,4.25
2024-01-18T17:36:42.875Z,4.27
2024-01-18T17:39:09.277Z,4.29
2024-01-18T17:41:35.745Z,4.37
2024-01-18T17:44:03.003Z,4.37
2024-01-18T17:46:29.433Z,4.35
2024-01-18T17:48:59.058Z,4.42
2024-01-18T17:51:25.891Z,4.42
2024-01-18T17:53:52.615Z,4.38
2024-01-18T17:56:19.289Z,4.42
2024-01-18T17:58:45.741Z,4.39
2024-01-18T18:01:12.464Z,4.36
2024-01-18T18:03:39.025Z,4.27
2024-01-18T18:06:07.906Z,4.27
2024-01-18T18:08:34.553Z,4.12
2024-01-18T18:11:03.173Z,4.13
2024-01-18T18:13:30.058Z,4.03
2024-01-18T18:15:56.728Z,3.88
2024-01-18T18:18:23.385Z,3.69
2024-01-18T18:20:49.906Z,3.48
2024-01-18T18:23:18.199Z,3.32
2024-01-18T18:25:44.832Z,3.27
2024-01-18T18:28:11.258Z,3.10
2024-01-18T18:30:41.308Z,3.05
2024-01-18T18:33:20.335Z,2.95
2024-01-18T18:35:46.841Z,2.88
2024-01-18T18:38:18.558Z,2.78
2024-01-18T18:40:49.113Z,2.68
2024-01-18T18:43:15.953Z,2.46
2024-01-18T18:45:42.537Z,2.36
2024-01-18T18:48:09.084Z,2.17
2024-01-18T18:50:35.641Z,2.10
2024-01-18T18:53:02.555Z,2.08
2024-01-18T18:55:29.002Z,2.02
2024-01-18T18:57:56.784Z,1.97
2024-01-18T19:00:23.264Z,2.11
2024-01-18T19:02:49.812Z,2.10
2024-01-18T19:05:16.489Z,2.19
2024-01-18T19:07:44.237Z,2.30
2024-01-18T19:10:10.812Z,2.47
2024-01-18T19:12:37.287Z,2.44
2024-01-18T19:15:06.157Z,2.57
2024-01-18T19:17:32.669Z,2.84
2024-01-18T19:19:59.183Z,2.62
2024-01-18T19:22:25.675Z,2.87
2024-01-18T19:24:54.104Z,2.93
2024-01-18T19:27:20.563Z,2.96
2024-01-18T19:29:47.959Z,2.87
2024-01-18T19:32:15.764Z,2.86
2024-01-18T19:34:42.250Z,2.78
2024-01-18T19:37:08.785Z,2.83
2024-01-18T19:39:40.506Z,2.88
2024-01-18T19:42:07.447Z,3.00
2024-01-18T19:44:34.167Z,3.20
2024-01-18T19:47:02.340Z,3.04
2024-01-18T19:49:30.404Z,3.00
2024-01-18T19:51:57.015Z,2.90
2024-01-18T19:54:23.571Z,2.64
2024-01-18T19:56:50.224Z,2.48
2024-01-18T19:59:16.851Z,2.32
2024-01-18T20:01:43.485Z,2.20
2024-01-18T20:04:10.039Z,1.93
2024-01-18T20:06:37.990Z,1.96
2024-01-18T20:09:04.524Z,1.61
2024-01-18T20:11:30.958Z,1.61
2024-01-18T20:13:57.504Z,1.61
2024-01-18T20:16:23.968Z,1.51
2024-01-18T20:18:52.269Z,1.38
2024-01-18T20:21:19.012Z,1.30
2024-01-18T20:23:46.972Z,1.30
2024-01-18T20:26:14.061Z,1.17
2024-01-18T20:28:41.846Z,1.09
2024-01-18T20:31:08.647Z,1.04
2024-01-18T20:33:35.539Z,1.00
2024-01-18T20:36:02.553Z,1.00
2024-01-18T20:38:34.810Z,0.87
2024-01-18T20:41:02.641Z,0.80
2024-01-18T20:43:29.494Z,0.79
2024-01-18T20:45:55.958Z,0.74
2024-01-18T20:48:22.580Z,0.66
2024-01-18T20:50:49.213Z,0.59
2024-01-18T20:53:15.873Z,0.54
2024-01-18T20:55:45.489Z,0.67
2024-01-18T20:58:13.915Z,0.44
2024-01-18T21:00:40.465Z,0.55
2024-01-18T21:03:07.580Z,0.54
2024-01-18T21:05:34.301Z,0.52
2024-01-18T21:08:00.943Z,0.46
2024-01-18T21:10:27.414Z,0.34
2024-01-18T21:12:53.818Z,0.18
2024-01-18T21:15:21.897Z,0.15
2024-01-18T21:17:48.774Z,0.06
2024-01-18T21:20:15.706Z,0.08
2024-01-18T21:22:42.413Z,0.11
2024-01-18T21:25:10.079Z,0.11
2024-01-18T21:27:36.562Z,0.14
2024-01-18T21:30:03.478Z,0.10
2024-01-18T21:32:32.275Z,0.12
2024-01-18T21:34:58.861Z,0.08
2024-01-18T21:37:25.321Z,0.09
2024-01-18T21:39:51.736Z,-0.12
2024-01-18T21:42:20.950Z,-0.20
2024-01-18T21:44:48.257Z,-0.25
2024-01-18T21:47:15.217Z,-0.28
2024-01-18T21:49:43.342Z,-0.23
2024-01-18T21:52:11.252Z,-0.11
2024-01-18T21:54:38.073Z,-0.14
2024-01-18T21:57:07.917Z,-0.15
2024-01-18T21:59:40.007Z,-0.18
2024-01-18T22:02:11.919Z,-0.30
2024-01-18T22:04:38.626Z,-0.32
2024-01-18T22:07:06.839Z,-0.38
2024-01-18T22:09:40.898Z,-0.30
2024-01-18T22:12:08.740Z,-0.39
2024-01-18T22:14:35.233Z,-0.41
2024-01-18T22:17:01.695Z,-0.50
2024-01-18T22:19:40.049Z,-0.44
2024-01-18T22:22:14.715Z,-0.50
2024-01-18T22:24:41.149Z,-0.48
2024-01-18T22:27:07.608Z,-0.38
2024-01-18T22:29:34.178Z,-0.39
2024-01-18T22:32:02.684Z,-0.41
2024-01-18T22:34:29.164Z,-0.31
2024-01-18T22:36:55.642Z,-0.28
2024-01-18T22:39:24.049Z,-0.29
2024-01-18T22:41:50.597Z,-0.29
2024-01-18T22:44:17.034Z,-0.27
2024-01-18T22:46:44.282Z,-0.30
2024-01-18T22:49:10.856Z,-0.27
2024-01-18T22:51:37.835Z,-0.07
2024-01-18T22:54:04.348Z,0.15
2024-01-18T22:56:32.306Z,0.31
2024-01-18T22:58:58.762Z,0.37
2024-01-18T23:01:25.474Z,0.39
2024-01-18T23:03:51.917Z,0.42
2024-01-18T23:06:18.541Z,0.44
2024-01-18T23:08:44.984Z,0.60
2024-01-18T23:11:11.615Z,0.51
2024-01-18T23:13:39.449Z,0.52
2024-01-18T23:16:07.036Z,0.69
2024-01-18T23:18:33.803Z,0.64
2024-01-18T23:21:02.313Z,0.68
2024-01-18T23:23:28.897Z,0.63
2024-01-18T23:25:55.358Z,0.65
2024-01-18T23:28:21.814Z,0.63
2024-01-18T23:30:49.562Z,0.65
2024-01-18T23:33:16.157Z,0.61
2024-01-18T23:35:43.059Z,0.59
2024-01-18T23:38:09.544Z,0.70
2024-01-18T23:40:35.947Z,0.65
2024-01-18T23:43:02.770Z,0.66
2024-01-18T23:45:29.185Z,0.71
2024-01-18T23:47:56.970Z,0.75
2024-01-18T23:50:23.397Z,0.75
2024-01-18T23:52:49.795Z,0.88
2024-01-18T23:55:16.213Z,0.77
2024-01-18T23:57:42.762Z,0.65
